createdAt,value
2018-03-27T00:01:28.931Z,99.90
2018-03-27T00:06:12.263Z,99.90
2018-03-27T00:10:55.748Z,99.90
2018-03-27T00:15:39.062Z,99.90
2018-03-27T00:20:22.505Z,99.90
2018-03-27T00:25:05.836Z,99.90
2018-03-27T00:30:01.826Z,99.90
2018-03-27T00:35:02.944Z,99.90
2018-03-27T00:40:04.071Z,99.90
2018-03-27T00:44:53.470Z,99.90
2018-03-27T00:49:36.642Z,99.90
2018-03-27T00:54:20.025Z,99.90
2018-03-27T00:59:03.341Z,99.90
2018-03-27T01:03:46.684Z,99.90
2018-03-27T01:08:30.060Z,99.90
2018-03-27T01:13:13.431Z,99.90
2018-03-27T01:17:56.829Z,99.90
2018-03-27T01:22:40.211Z,99.90
2018-03-27T01:27:23.558Z,99.90
2018-03-27T01:32:07.086Z,99.90
2018-03-27T01:36:50.580Z,99.90
2018-03-27T01:41:33.975Z,99.90
2018-03-27T01:46:17.401Z,99.90
2018-03-27T01:51:01.666Z,99.90
2018-03-27T01:55:45.424Z,99.90
2018-03-27T02:00:28.748Z,99.90
2018-03-27T02:05:12.326Z,99.90
2018-03-27T02:09:55.713Z,99.90
2018-03-27T02:14:44.663Z,99.90
2018-03-27T02:19:33.861Z,99.90
2018-03-27T02:24:20.180Z,99.90
2018-03-27T02:29:03.603Z,99.90
2018-03-27T02:33:47.233Z,99.90
2018-03-27T02:38:30.744Z,99.90
2018-03-27T02:43:14.270Z,99.90
2018-03-27T02:47:57.889Z,99.90
2018-03-27T02:52:41.601Z,99.90
2018-03-27T02:57:26.577Z,99.90
2018-03-27T03:02:11.128Z,99.90
2018-03-27T03:06:56.260Z,99.90
2018-03-27T03:11:39.844Z,99.90
2018-03-27T03:16:23.536Z,99.90
2018-03-27T03:21:07.852Z,99.90
2018-03-27T03:25:53.576Z,99.90
2018-03-27T03:30:37.105Z,99.90
2018-03-27T03:35:20.801Z,99.90
2018-03-27T03:40:04.358Z,99.90
2018-03-27T03:44:48.094Z,99.90
2018-03-27T03:49:32.058Z,99.90
2018-03-27T03:54:15.809Z,99.90
2018-03-27T03:58:59.295Z,99.90
2018-03-27T04:03:42.916Z,99.90
2018-03-27T04:08:26.866Z,99.90
2018-03-27T04:13:11.067Z,99.90
2018-03-27T04:17:56.252Z,99.90
2018-03-27T04:22:42.861Z,99.90
2018-03-27T04:37:06.831Z,99.90
2018-03-27T04:41:50.163Z,99.90
2018-03-27T04:46:33.528Z,99.90
2018-03-27T04:51:16.926Z,99.90
2018-03-27T05:01:04.421Z,99.90
2018-03-27T05:05:47.797Z,99.90
2018-03-27T05:10:31.332Z,99.90
2018-03-27T05:15:14.679Z,99.90
2018-03-27T05:24:49.190Z,99.90
2018-03-27T05:29:32.533Z,99.90
2018-03-27T05:34:16.644Z,99.90
2018-03-27T05:39:00.000Z,99.90
2018-03-27T05:43:43.356Z,99.90
2018-03-27T05:48:27.447Z,99.90
2018-03-27T05:53:11.481Z,99.90
2018-03-27T05:57:55.369Z,99.90
2018-03-27T06:02:38.726Z,99.90
2018-03-27T06:07:22.409Z,99.90
2018-03-27T06:12:06.094Z,99.90
2018-03-27T06:16:49.554Z,99.90
2018-03-27T06:21:33.105Z,99.90
2018-03-27T06:26:16.536Z,99.90
2018-03-27T06:31:00.113Z,99.90
2018-03-27T06:35:43.620Z,99.90
2018-03-27T06:40:26.931Z,99.90
2018-03-27T06:45:12.085Z,99.90
2018-03-27T06:49:55.391Z,99.90
2018-03-27T06:54:38.744Z,99.90
2018-03-27T06:59:22.085Z,99.90
2018-03-27T07:04:05.481Z,99.90
2018-03-27T07:08:50.237Z,99.90
2018-03-27T07:13:33.677Z,99.90
2018-03-27T07:18:17.096Z,99.90
2018-03-27T07:23:00.684Z,99.90
2018-03-27T07:27:44.029Z,99.90
2018-03-27T07:32:27.534Z,99.90
2018-03-27T07:37:10.896Z,99.90
2018-03-27T07:41:55.113Z,99.90
2018-03-27T07:46:38.480Z,99.90
2018-03-27T07:51:23.013Z,99.90
2018-03-27T07:56:07.648Z,99.90
2018-03-27T08:00:51.102Z,99.90
2018-03-27T08:05:35.799Z,99.90
2018-03-27T08:10:19.259Z,99.90
2018-03-27T08:15:02.637Z,99.90
2018-03-27T08:19:46.845Z,99.90
2018-03-27T08:24:30.286Z,99.90
2018-03-27T08:29:13.795Z,99.90
2018-03-27T08:33:57.393Z,99.90
2018-03-27T08:38:40.737Z,99.90
2018-03-27T08:43:24.396Z,99.90
2018-03-27T08:48:07.714Z,99.90
2018-03-27T08:52:51.128Z,99.90
2018-03-27T08:57:35.265Z,99.90
2018-03-27T09:02:19.355Z,99.90
2018-03-27T09:07:02.691Z,99.90
2018-03-27T09:11:45.986Z,99.90
2018-03-27T09:16:30.070Z,98.30
2018-03-27T09:21:13.408Z,98.30
2018-03-27T09:25:57.783Z,99.20
2018-03-27T09:30:41.112Z,99.20
2018-03-27T09:35:24.451Z,99.80
2018-03-27T09:40:07.803Z,99.20
2018-03-27T09:44:51.951Z,93.70
2018-03-27T09:49:36.174Z,93.70
2018-03-27T09:54:19.527Z,93.20
2018-03-27T09:59:02.862Z,94.60
2018-03-27T10:03:46.217Z,95.40
2018-03-27T10:08:30.397Z,94.40
2018-03-27T10:13:14.466Z,95.50
2018-03-27T10:22:49.754Z,91.70
2018-03-27T10:27:33.117Z,90.80
2018-03-27T10:32:16.436Z,93.10
2018-03-27T10:36:59.804Z,95.30
2018-03-27T10:41:43.190Z,90.90
2018-03-27T10:46:27.339Z,86.00
2018-03-27T10:51:11.489Z,89.30
2018-03-27T10:55:55.639Z,90.00
2018-03-27T11:00:38.996Z,89.90
2018-03-27T11:05:22.368Z,91.40
2018-03-27T11:10:05.931Z,81.40
2018-03-27T11:14:49.321Z,76.20
2018-03-27T11:19:33.574Z,77.90
2018-03-27T11:24:16.915Z,77.90
2018-03-27T11:29:00.290Z,69.90
2018-03-27T11:33:43.645Z,64.70
2018-03-27T11:38:27.021Z,58.40
2018-03-27T11:43:10.373Z,57.80
2018-03-27T11:47:53.791Z,61.80
2018-03-27T11:52:37.851Z,66.70
2018-03-27T11:57:21.192Z,66.40
2018-03-27T12:02:04.581Z,65.10
2018-03-27T12:06:47.906Z,62.30
2018-03-27T12:11:32.031Z,71.40
2018-03-27T12:16:15.354Z,71.40
2018-03-27T12:20:58.744Z,76.90
2018-03-27T12:25:42.126Z,76.70
2018-03-27T12:30:25.511Z,72.30
2018-03-27T12:35:08.836Z,70.00
2018-03-27T12:39:52.143Z,75.20
2018-03-27T12:44:35.539Z,78.70
2018-03-27T12:49:18.901Z,81.40
2018-03-27T12:54:02.989Z,75.80
2018-03-27T12:58:46.364Z,75.80
2018-03-27T13:03:29.668Z,75.40
2018-03-27T13:08:13.255Z,79.00
2018-03-27T13:12:56.590Z,84.90
2018-03-27T13:17:39.974Z,80.50
2018-03-27T13:22:23.316Z,81.20
2018-03-27T13:27:06.737Z,75.40
2018-03-27T13:31:50.063Z,67.90
2018-03-27T13:36:33.404Z,63.90
2018-03-27T13:41:16.735Z,67.10
2018-03-27T13:46:00.317Z,70.00
2018-03-27T13:50:44.397Z,57.30
2018-03-27T13:55:27.764Z,57.30
2018-03-27T14:00:11.108Z,56.20
2018-03-27T14:04:54.690Z,63.50
2018-03-27T14:09:39.052Z,67.00
2018-03-27T14:14:22.302Z,66.90
2018-03-27T14:19:06.621Z,59.70
2018-03-27T14:23:50.056Z,59.60
2018-03-27T14:28:33.570Z,60.10
2018-03-27T14:33:17.694Z,56.60
2018-03-27T14:38:01.012Z,56.50
2018-03-27T14:42:45.171Z,56.40
2018-03-27T14:47:28.521Z,56.40
2018-03-27T14:52:11.855Z,55.70
2018-03-27T14:56:55.618Z,52.80
2018-03-27T15:01:38.923Z,55.50
2018-03-27T15:06:23.025Z,52.30
2018-03-27T15:11:06.556Z,52.40
2018-03-27T15:15:49.881Z,50.10
2018-03-27T15:20:33.282Z,50.70
2018-03-27T15:25:16.656Z,55.80
2018-03-27T15:29:59.978Z,52.20
2018-03-27T15:34:43.331Z,53.40
2018-03-27T15:39:26.684Z,54.30
2018-03-27T15:44:10.053Z,55.80
2018-03-27T15:48:53.371Z,60.80
2018-03-27T15:53:36.775Z,56.30
2018-03-27T15:58:20.839Z,56.70
2018-03-27T16:03:04.215Z,55.10
2018-03-27T16:07:47.609Z,60.00
2018-03-27T16:12:31.039Z,58.10
2018-03-27T16:17:15.424Z,60.50
2018-03-27T16:21:59.520Z,61.10
2018-03-27T16:26:43.884Z,60.90
2018-03-27T16:31:27.185Z,63.50
2018-03-27T16:36:10.527Z,64.60
2018-03-27T16:40:53.888Z,67.50
2018-03-27T16:45:37.204Z,66.20
2018-03-27T16:50:20.640Z,70.00
2018-03-27T16:55:03.962Z,71.70
2018-03-27T16:59:48.108Z,79.90
2018-03-27T17:04:31.478Z,79.80
2018-03-27T17:09:15.544Z,84.70
2018-03-27T17:13:58.887Z,84.70
2018-03-27T17:18:42.199Z,89.00
2018-03-27T17:23:25.548Z,90.30
2018-03-27T17:28:09.635Z,92.90
2018-03-27T17:32:53.002Z,92.90
2018-03-27T17:37:36.646Z,94.00
2018-03-27T17:42:20.072Z,95.20
2018-03-27T17:47:03.453Z,97.20
2018-03-27T17:51:47.568Z,99.90
2018-03-27T17:56:30.912Z,99.90
2018-03-27T18:01:14.275Z,99.90
2018-03-27T18:05:57.690Z,99.90
2018-03-27T18:10:41.142Z,99.90
2018-03-27T18:15:24.492Z,99.90
2018-03-27T18:20:07.832Z,99.90
2018-03-27T18:24:51.168Z,99.90
2018-03-27T18:29:34.513Z,99.90
2018-03-27T18:34:18.574Z,99.90
2018-03-27T18:39:02.185Z,99.90
2018-03-27T18:48:33.840Z,99.90
2018-03-27T19:00:06.482Z,99.90
2018-03-27T19:04:55.094Z,99.90
2018-03-27T19:09:44.533Z,99.90
2018-03-27T19:14:36.374Z,99.90
2018-03-27T19:19:25.199Z,99.90
2018-03-27T19:24:09.569Z,99.90
2018-03-27T19:28:57.129Z,99.90
2018-03-27T19:33:44.041Z,99.90
2018-03-27T19:38:32.219Z,99.90
2018-03-27T19:43:17.750Z,99.90
2018-03-27T19:48:03.805Z,99.90
2018-03-27T19:52:50.802Z,99.90
2018-03-27T19:57:34.298Z,99.90
2018-03-27T20:02:19.789Z,99.90
2018-03-27T20:07:05.203Z,99.90
2018-03-27T20:11:50.471Z,99.90
2018-03-27T20:16:34.443Z,99.90
2018-03-27T20:21:20.998Z,99.90
2018-03-27T20:26:09.023Z,99.90
2018-03-27T20:30:54.871Z,99.90
2018-03-27T20:35:40.792Z,99.90
2018-03-27T20:40:24.666Z,99.90
2018-03-27T20:45:08.062Z,99.90
2018-03-27T20:49:53.466Z,99.90
2018-03-27T20:54:37.304Z,99.90
2018-03-27T20:59:21.118Z,99.90
2018-03-27T21:04:08.005Z,99.90
2018-03-27T21:08:53.115Z,99.90
2018-03-27T21:13:37.217Z,99.90
2018-03-27T21:18:20.903Z,99.90
2018-03-27T21:23:04.621Z,99.90
2018-03-27T21:27:48.075Z,99.90
2018-03-27T21:32:32.202Z,99.90
2018-03-27T21:37:15.604Z,99.90
2018-03-27T21:41:58.946Z,99.90
2018-03-27T21:46:43.264Z,99.90
2018-03-27T21:51:26.750Z,99.90
2018-03-27T21:56:10.390Z,99.90
2018-03-27T22:00:53.876Z,99.90
2018-03-27T22:05:37.407Z,99.90
2018-03-27T22:10:21.581Z,99.90
2018-03-27T22:15:05.066Z,99.90
2018-03-27T22:19:49.243Z,99.90
2018-03-27T22:24:32.586Z,99.90
2018-03-27T22:29:15.903Z,99.90
2018-03-27T22:33:59.990Z,99.90
2018-03-27T22:38:43.311Z,99.90
2018-03-27T22:43:26.634Z,99.90
2018-03-27T22:48:10.754Z,99.90
2018-03-27T22:52:54.090Z,99.90
2018-03-27T22:57:38.240Z,99.90
2018-03-27T23:02:21.578Z,99.90
2018-03-27T23:07:04.929Z,99.90
2018-03-27T23:11:48.330Z,99.90
2018-03-27T23:16:32.435Z,99.90
2018-03-27T23:21:15.860Z,99.90
2018-03-27T23:25:59.174Z,99.90
2018-03-27T23:30:43.236Z,99.90
2018-03-27T23:35:26.592Z,99.90
2018-03-27T23:40:09.936Z,99.90
2018-03-27T23:44:53.271Z,99.90
2018-03-27T23:49:36.617Z,99.90
2018-03-27T23:54:19.906Z,99.90
2018-03-27T23:59:03.982Z,99.90
